Terminal Aerodrome Forecast
Issued by NWS

Home | Current Version | Previous Version | Graphics & Text | Print | Product List | Glossary On
Versions: 1 2 3 4 5 6 7 8 9 10 11 12 13 14 15 16 17 18 19 20 21 22 23
000
FTUS43 KICT 241736
TAFCNU
TAF
KCNU 241736Z 2418/2518 21015G22KT P6SM SCT040
     FM242300 18011KT P6SM VCTS BKN040CB OVC100
     FM250900 VRB04KT P6SM VCSH SCT025 OVC050=

USA.gov is the U.S. government's official web portal to all federal, state and local government web resources and services.